sensor_id;sensor_type;location;lat;lon;timestamp;temperature;humidity
14733;DHT22;7457;50.960;6.830;2023-11-19T00:02:21;10.60;100.00
14733;DHT22;7457;50.960;6.830;2023-11-19T00:04:47;10.70;100.00
14733;DHT22;7457;50.960;6.830;2023-11-19T00:07:13;10.90;100.00
14733;DHT22;7457;50.960;6.830;2023-11-19T00:09:40;11.00;100.00
14733;DHT22;7457;50.960;6.830;2023-11-19T00:12:06;11.10;100.00
14733;DHT22;7457;50.960;6.830;2023-11-19T00:14:35;11.20;100.00
14733;DHT22;7457;50.960;6.830;2023-11-19T00:17:01;11.30;100.00
14733;DHT22;7457;50.960;6.830;2023-11-19T00:19:26;11.40;100.00
14733;DHT22;7457;50.960;6.830;2023-11-19T00:21:52;11.40;100.00
14733;DHT22;7457;50.960;6.830;2023-11-19T00:24:18;11.50;100.00
14733;DHT22;7457;50.960;6.830;2023-11-19T00:26:44;11.50;100.00
14733;DHT22;7457;50.960;6.830;2023-11-19T00:29:10;11.60;100.00
14733;DHT22;7457;50.960;6.830;2023-11-19T00:31:36;11.60;100.00
14733;DHT22;7457;50.960;6.830;2023-11-19T00:34:02;11.60;100.00
14733;DHT22;7457;50.960;6.830;2023-11-19T00:36:28;11.70;100.00
14733;DHT22;7457;50.960;6.830;2023-11-19T00:38:54;11.70;100.00
14733;DHT22;7457;50.960;6.830;2023-11-19T00:41:20;11.70;100.00
14733;DHT22;7457;50.960;6.830;2023-11-19T00:43:46;11.70;100.00
14733;DHT22;7457;50.960;6.830;2023-11-19T00:46:11;11.80;100.00
14733;DHT22;7457;50.960;6.830;2023-11-19T00:48:38;11.80;100.00
14733;DHT22;7457;50.960;6.830;2023-11-19T00:51:04;11.80;100.00
14733;DHT22;7457;50.960;6.830;2023-11-19T00:53:30;11.80;100.00
14733;DHT22;7457;50.960;6.830;2023-11-19T00:55:57;11.80;100.00
14733;DHT22;7457;50.960;6.830;2023-11-19T00:58:23;11.80;100.00
14733;DHT22;7457;50.960;6.830;2023-11-19T01:00:49;11.80;100.00
14733;DHT22;7457;50.960;6.830;2023-11-19T01:03:14;11.90;100.00
14733;DHT22;7457;50.960;6.830;2023-11-19T01:05:41;11.90;100.00
14733;DHT22;7457;50.960;6.830;2023-11-19T01:08:07;11.90;100.00
14733;DHT22;7457;50.960;6.830;2023-11-19T01:10:33;11.90;100.00
14733;DHT22;7457;50.960;6.830;2023-11-19T01:12:59;12.00;100.00
14733;DHT22;7457;50.960;6.830;2023-11-19T01:15:25;12.00;100.00
14733;DHT22;7457;50.960;6.830;2023-11-19T01:17:50;12.00;100.00
14733;DHT22;7457;50.960;6.830;2023-11-19T01:20:16;12.00;100.00
14733;DHT22;7457;50.960;6.830;2023-11-19T01:22:42;12.00;100.00
14733;DHT22;7457;50.960;6.830;2023-11-19T01:25:09;12.00;100.00
14733;DHT22;7457;50.960;6.830;2023-11-19T01:27:35;12.00;100.00
14733;DHT22;7457;50.960;6.830;2023-11-19T01:30:04;11.90;100.00
14733;DHT22;7457;50.960;6.830;2023-11-19T01:32:31;11.90;100.00
14733;DHT22;7457;50.960;6.830;2023-11-19T01:34:57;12.00;100.00
14733;DHT22;7457;50.960;6.830;2023-11-19T01:37:22;11.90;100.00
14733;DHT22;7457;50.960;6.830;2023-11-19T01:39:48;12.00;100.00
14733;DHT22;7457;50.960;6.830;2023-11-19T01:42:14;12.00;100.00
14733;DHT22;7457;50.960;6.830;2023-11-19T01:44:40;11.90;100.00
14733;DHT22;7457;50.960;6.830;2023-11-19T01:47:07;11.90;100.00
14733;DHT22;7457;50.960;6.830;2023-11-19T01:49:33;12.00;100.00
14733;DHT22;7457;50.960;6.830;2023-11-19T01:51:58;12.00;100.00
14733;DHT22;7457;50.960;6.830;2023-11-19T01:54:25;12.00;100.00
14733;DHT22;7457;50.960;6.830;2023-11-19T01:56:52;12.00;100.00
14733;DHT22;7457;50.960;6.830;2023-11-19T01:59:19;12.00;100.00
14733;DHT22;7457;50.960;6.830;2023-11-19T02:01:52;12.00;100.00
14733;DHT22;7457;50.960;6.830;2023-11-19T02:04:18;12.10;100.00
14733;DHT22;7457;50.960;6.830;2023-11-19T02:06:45;12.10;100.00
14733;DHT22;7457;50.960;6.830;2023-11-19T02:09:12;12.10;100.00
14733;DHT22;7457;50.960;6.830;2023-11-19T02:11:40;12.20;100.00
14733;DHT22;7457;50.960;6.830;2023-11-19T02:14:06;12.20;100.00
14733;DHT22;7457;50.960;6.830;2023-11-19T02:16:32;12.20;100.00
14733;DHT22;7457;50.960;6.830;2023-11-19T02:18:58;12.20;100.00
14733;DHT22;7457;50.960;6.830;2023-11-19T02:21:23;12.20;100.00
14733;DHT22;7457;50.960;6.830;2023-11-19T02:23:49;12.20;100.00
14733;DHT22;7457;50.960;6.830;2023-11-19T02:26:28;12.20;100.00
14733;DHT22;7457;50.960;6.830;2023-11-19T02:28:54;12.20;100.00
14733;DHT22;7457;50.960;6.830;2023-11-19T02:31:20;12.20;100.00
14733;DHT22;7457;50.960;6.830;2023-11-19T02:33:46;12.20;100.00
14733;DHT22;7457;50.960;6.830;2023-11-19T02:36:11;12.20;100.00
14733;DHT22;7457;50.960;6.830;2023-11-19T02:38:37;12.20;100.00
14733;DHT22;7457;50.960;6.830;2023-11-19T02:41:03;12.20;100.00
14733;DHT22;7457;50.960;6.830;2023-11-19T02:43:33;12.20;100.00
14733;DHT22;7457;50.960;6.830;2023-11-19T02:46:03;12.20;100.00
14733;DHT22;7457;50.960;6.830;2023-11-19T02:48:33;12.20;100.00
14733;DHT22;7457;50.960;6.830;2023-11-19T02:51:01;12.10;100.00
14733;DHT22;7457;50.960;6.830;2023-11-19T02:53:29;12.10;100.00
14733;DHT22;7457;50.960;6.830;2023-11-19T02:55:54;12.00;100.00
14733;DHT22;7457;50.960;6.830;2023-11-19T02:58:27;12.00;100.00
14733;DHT22;7457;50.960;6.830;2023-11-19T03:00:54;11.90;100.00
14733;DHT22;7457;50.960;6.830;2023-11-19T03:03:26;11.90;100.00
14733;DHT22;7457;50.960;6.830;2023-11-19T03:06:07;11.90;100.00
14733;DHT22;7457;50.960;6.830;2023-11-19T03:08:35;11.90;100.00
14733;DHT22;7457;50.960;6.830;2023-11-19T03:11:01;11.90;100.00
14733;DHT22;7457;50.960;6.830;2023-11-19T03:13:27;11.80;100.00
14733;DHT22;7457;50.960;6.830;2023-11-19T03:15:53;11.80;100.00
14733;DHT22;7457;50.960;6.830;2023-11-19T03:18:19;11.80;100.00
14733;DHT22;7457;50.960;6.830;2023-11-19T03:20:46;11.80;100.00
14733;DHT22;7457;50.960;6.830;2023-11-19T03:23:12;11.90;100.00
14733;DHT22;7457;50.960;6.830;2023-11-19T03:25:38;11.90;100.00
14733;DHT22;7457;50.960;6.830;2023-11-19T03:28:03;12.00;100.00
14733;DHT22;7457;50.960;6.830;2023-11-19T03:30:30;12.00;100.00
14733;DHT22;7457;50.960;6.830;2023-11-19T03:32:56;12.00;100.00
14733;DHT22;7457;50.960;6.830;2023-11-19T03:35:23;12.00;100.00
14733;DHT22;7457;50.960;6.830;2023-11-19T03:37:49;12.10;100.00
14733;DHT22;7457;50.960;6.830;2023-11-19T03:40:16;12.10;100.00
14733;DHT22;7457;50.960;6.830;2023-11-19T03:42:41;12.10;100.00
14733;DHT22;7457;50.960;6.830;2023-11-19T03:45:08;12.10;100.00
14733;DHT22;7457;50.960;6.830;2023-11-19T03:47:36;12.20;100.00
14733;DHT22;7457;50.960;6.830;2023-11-19T03:50:02;12.20;100.00
14733;DHT22;7457;50.960;6.830;2023-11-19T03:52:29;12.20;100.00
14733;DHT22;7457;50.960;6.830;2023-11-19T03:54:55;12.20;100.00
14733;DHT22;7457;50.960;6.830;2023-11-19T03:57:21;12.20;100.00
14733;DHT22;7457;50.960;6.830;2023-11-19T03:59:47;12.20;100.00
14733;DHT22;7457;50.960;6.830;2023-11-19T04:02:13;12.10;100.00
14733;DHT22;7457;50.960;6.830;2023-11-19T04:04:39;12.10;100.00
14733;DHT22;7457;50.960;6.830;2023-11-19T04:07:05;12.10;100.00
14733;DHT22;7457;50.960;6.830;2023-11-19T04:09:31;12.10;100.00
14733;DHT22;7457;50.960;6.830;2023-11-19T04:11:58;12.00;100.00
14733;DHT22;7457;50.960;6.830;2023-11-19T04:14:24;12.00;100.00
14733;DHT22;7457;50.960;6.830;2023-11-19T04:16:50;12.00;100.00
14733;DHT22;7457;50.960;6.830;2023-11-19T04:19:16;12.00;100.00
14733;DHT22;7457;50.960;6.830;2023-11-19T04:21:42;12.00;100.00
14733;DHT22;7457;50.960;6.830;2023-11-19T04:24:09;11.90;100.00
14733;DHT22;7457;50.960;6.830;2023-11-19T04:26:43;11.90;100.00
14733;DHT22;7457;50.960;6.830;2023-11-19T04:29:12;11.90;100.00
14733;DHT22;7457;50.960;6.830;2023-11-19T04:31:38;11.90;100.00
14733;DHT22;7457;50.960;6.830;2023-11-19T04:34:05;11.80;100.00
14733;DHT22;7457;50.960;6.830;2023-11-19T04:36:31;11.80;100.00
14733;DHT22;7457;50.960;6.830;2023-11-19T04:38:58;11.80;100.00
14733;DHT22;7457;50.960;6.830;2023-11-19T04:41:25;11.80;100.00
14733;DHT22;7457;50.960;6.830;2023-11-19T04:43:53;11.80;100.00
14733;DHT22;7457;50.960;6.830;2023-11-19T04:46:18;11.90;100.00
14733;DHT22;7457;50.960;6.830;2023-11-19T04:48:44;11.90;100.00
14733;DHT22;7457;50.960;6.830;2023-11-19T04:51:10;11.80;100.00
14733;DHT22;7457;50.960;6.830;2023-11-19T04:53:36;11.80;100.00
14733;DHT22;7457;50.960;6.830;2023-11-19T04:56:07;11.80;100.00
14733;DHT22;7457;50.960;6.830;2023-11-19T04:58:34;11.80;100.00
14733;DHT22;7457;50.960;6.830;2023-11-19T05:01:01;11.80;100.00
14733;DHT22;7457;50.960;6.830;2023-11-19T05:03:27;11.80;100.00
14733;DHT22;7457;50.960;6.830;2023-11-19T05:05:52;11.80;100.00
14733;DHT22;7457;50.960;6.830;2023-11-19T05:08:19;11.70;100.00
14733;DHT22;7457;50.960;6.830;2023-11-19T05:10:45;11.70;100.00
14733;DHT22;7457;50.960;6.830;2023-11-19T05:13:10;11.80;100.00
14733;DHT22;7457;50.960;6.830;2023-11-19T05:15:36;11.80;100.00
14733;DHT22;7457;50.960;6.830;2023-11-19T05:18:02;11.80;100.00
14733;DHT22;7457;50.960;6.830;2023-11-19T05:20:27;11.80;100.00
14733;DHT22;7457;50.960;6.830;2023-11-19T05:22:53;11.90;100.00
14733;DHT22;7457;50.960;6.830;2023-11-19T05:25:18;11.80;100.00
14733;DHT22;7457;50.960;6.830;2023-11-19T05:27:45;11.80;100.00
14733;DHT22;7457;50.960;6.830;2023-11-19T05:30:11;11.80;100.00
14733;DHT22;7457;50.960;6.830;2023-11-19T05:32:37;11.80;100.00
14733;DHT22;7457;50.960;6.830;2023-11-19T05:35:03;11.80;100.00
14733;DHT22;7457;50.960;6.830;2023-11-19T05:37:28;11.70;100.00
14733;DHT22;7457;50.960;6.830;2023-11-19T05:39:54;11.70;100.00
14733;DHT22;7457;50.960;6.830;2023-11-19T05:42:20;11.70;100.00
14733;DHT22;7457;50.960;6.830;2023-11-19T05:44:45;11.60;100.00
14733;DHT22;7457;50.960;6.830;2023-11-19T05:47:11;11.60;99.70
14733;DHT22;7457;50.960;6.830;2023-11-19T05:49:37;11.60;99.50
14733;DHT22;7457;50.960;6.830;2023-11-19T05:52:03;11.60;99.30
14733;DHT22;7457;50.960;6.830;2023-11-19T05:54:29;11.60;98.90
14733;DHT22;7457;50.960;6.830;2023-11-19T05:56:55;11.60;98.80
14733;DHT22;7457;50.960;6.830;2023-11-19T05:59:22;11.60;98.50
14733;DHT22;7457;50.960;6.830;2023-11-19T06:01:49;11.60;98.50
14733;DHT22;7457;50.960;6.830;2023-11-19T06:04:15;11.60;98.70
14733;DHT22;7457;50.960;6.830;2023-11-19T06:06:41;11.50;98.80
14733;DHT22;7457;50.960;6.830;2023-11-19T06:09:07;11.50;98.80
14733;DHT22;7457;50.960;6.830;2023-11-19T06:11:33;11.50;98.50
14733;DHT22;7457;50.960;6.830;2023-11-19T06:13:59;11.60;98.60
14733;DHT22;7457;50.960;6.830;2023-11-19T06:16:25;11.60;98.30
14733;DHT22;7457;50.960;6.830;2023-11-19T06:18:50;11.60;98.10
14733;DHT22;7457;50.960;6.830;2023-11-19T06:21:16;11.60;97.80
14733;DHT22;7457;50.960;6.830;2023-11-19T06:23:42;11.60;97.80
14733;DHT22;7457;50.960;6.830;2023-11-19T06:26:07;11.60;97.30
14733;DHT22;7457;50.960;6.830;2023-11-19T06:28:34;11.60;97.30
14733;DHT22;7457;50.960;6.830;2023-11-19T06:30:59;11.60;97.50
14733;DHT22;7457;50.960;6.830;2023-11-19T06:33:26;11.60;97.30
14733;DHT22;7457;50.960;6.830;2023-11-19T06:35:52;11.60;97.20
14733;DHT22;7457;50.960;6.830;2023-11-19T06:38:20;11.60;97.00
14733;DHT22;7457;50.960;6.830;2023-11-19T06:40:45;11.60;97.00
14733;DHT22;7457;50.960;6.830;2023-11-19T06:43:11;11.60;96.90
14733;DHT22;7457;50.960;6.830;2023-11-19T06:45:37;11.60;96.80
14733;DHT22;7457;50.960;6.830;2023-11-19T06:48:03;11.60;96.80
14733;DHT22;7457;50.960;6.830;2023-11-19T06:50:29;11.60;96.70
14733;DHT22;7457;50.960;6.830;2023-11-19T06:52:55;11.60;96.80
14733;DHT22;7457;50.960;6.830;2023-11-19T06:55:20;11.50;96.40
14733;DHT22;7457;50.960;6.830;2023-11-19T06:57:46;11.50;96.40
14733;DHT22;7457;50.960;6.830;2023-11-19T07:00:12;11.50;96.40
14733;DHT22;7457;50.960;6.830;2023-11-19T07:02:38;11.50;96.40
14733;DHT22;7457;50.960;6.830;2023-11-19T07:05:03;11.50;96.50
14733;DHT22;7457;50.960;6.830;2023-11-19T07:07:33;11.40;96.60
14733;DHT22;7457;50.960;6.830;2023-11-19T07:10:00;11.40;96.60
14733;DHT22;7457;50.960;6.830;2023-11-19T07:12:27;11.40;96.50
14733;DHT22;7457;50.960;6.830;2023-11-19T07:14:53;11.40;96.60
14733;DHT22;7457;50.960;6.830;2023-11-19T07:17:20;11.30;96.80
14733;DHT22;7457;50.960;6.830;2023-11-19T07:19:47;11.30;97.20
14733;DHT22;7457;50.960;6.830;2023-11-19T07:22:14;11.30;97.40
14733;DHT22;7457;50.960;6.830;2023-11-19T07:24:40;11.30;97.50
14733;DHT22;7457;50.960;6.830;2023-11-19T07:27:07;11.30;98.00
14733;DHT22;7457;50.960;6.830;2023-11-19T07:29:34;11.30;98.60
14733;DHT22;7457;50.960;6.830;2023-11-19T07:32:00;11.30;98.60
14733;DHT22;7457;50.960;6.830;2023-11-19T07:34:27;11.40;98.70
14733;DHT22;7457;50.960;6.830;2023-11-19T07:36:54;11.50;98.60
14733;DHT22;7457;50.960;6.830;2023-11-19T07:39:22;11.60;98.10
14733;DHT22;7457;50.960;6.830;2023-11-19T07:41:48;11.60;98.20
14733;DHT22;7457;50.960;6.830;2023-11-19T07:44:14;11.60;97.30
14733;DHT22;7457;50.960;6.830;2023-11-19T07:46:40;11.60;96.90
14733;DHT22;7457;50.960;6.830;2023-11-19T07:49:07;11.60;96.30
14733;DHT22;7457;50.960;6.830;2023-11-19T07:51:33;11.50;95.90
14733;DHT22;7457;50.960;6.830;2023-11-19T07:53:58;11.60;95.90
14733;DHT22;7457;50.960;6.830;2023-11-19T07:56:24;11.50;96.20
14733;DHT22;7457;50.960;6.830;2023-11-19T07:58:50;11.60;96.00
14733;DHT22;7457;50.960;6.830;2023-11-19T08:01:16;11.60;96.50
14733;DHT22;7457;50.960;6.830;2023-11-19T08:03:41;11.70;95.30
14733;DHT22;7457;50.960;6.830;2023-11-19T08:06:07;11.80;94.80
14733;DHT22;7457;50.960;6.830;2023-11-19T08:08:33;11.80;96.00
14733;DHT22;7457;50.960;6.830;2023-11-19T08:11:00;11.80;96.30
14733;DHT22;7457;50.960;6.830;2023-11-19T08:13:26;11.90;96.30
14733;DHT22;7457;50.960;6.830;2023-11-19T08:15:52;12.10;96.40
14733;DHT22;7457;50.960;6.830;2023-11-19T08:18:17;12.20;96.40
14733;DHT22;7457;50.960;6.830;2023-11-19T08:20:44;12.40;95.80
14733;DHT22;7457;50.960;6.830;2023-11-19T08:23:10;12.70;95.20
14733;DHT22;7457;50.960;6.830;2023-11-19T08:25:36;12.90;94.40
14733;DHT22;7457;50.960;6.830;2023-11-19T08:28:02;13.00;93.10
14733;DHT22;7457;50.960;6.830;2023-11-19T08:30:29;13.10;92.40
14733;DHT22;7457;50.960;6.830;2023-11-19T08:32:55;13.10;91.80
14733;DHT22;7457;50.960;6.830;2023-11-19T08:35:21;13.00;91.60
14733;DHT22;7457;50.960;6.830;2023-11-19T08:37:47;13.00;91.70
14733;DHT22;7457;50.960;6.830;2023-11-19T08:40:12;13.00;91.80
14733;DHT22;7457;50.960;6.830;2023-11-19T08:42:40;12.90;92.20
14733;DHT22;7457;50.960;6.830;2023-11-19T08:45:07;12.90;91.80
14733;DHT22;7457;50.960;6.830;2023-11-19T08:47:35;12.90;91.40
14733;DHT22;7457;50.960;6.830;2023-11-19T08:50:01;13.00;91.80
14733;DHT22;7457;50.960;6.830;2023-11-19T08:52:27;13.00;91.60
14733;DHT22;7457;50.960;6.830;2023-11-19T08:54:52;13.10;91.40
14733;DHT22;7457;50.960;6.830;2023-11-19T08:57:18;13.20;91.60
14733;DHT22;7457;50.960;6.830;2023-11-19T08:59:44;13.30;91.30
14733;DHT22;7457;50.960;6.830;2023-11-19T09:02:11;13.40;90.50
14733;DHT22;7457;50.960;6.830;2023-11-19T09:04:36;13.40;89.80
14733;DHT22;7457;50.960;6.830;2023-11-19T09:07:02;13.50;89.60
14733;DHT22;7457;50.960;6.830;2023-11-19T09:09:29;13.50;89.30
14733;DHT22;7457;50.960;6.830;2023-11-19T09:11:55;13.60;88.90
14733;DHT22;7457;50.960;6.830;2023-11-19T09:14:21;13.70;88.90
14733;DHT22;7457;50.960;6.830;2023-11-19T09:16:51;13.80;88.90
14733;DHT22;7457;50.960;6.830;2023-11-19T09:19:17;13.80;88.90
14733;DHT22;7457;50.960;6.830;2023-11-19T09:21:43;13.90;88.80
14733;DHT22;7457;50.960;6.830;2023-11-19T09:24:08;14.00;88.80
14733;DHT22;7457;50.960;6.830;2023-11-19T09:26:34;14.10;88.20
14733;DHT22;7457;50.960;6.830;2023-11-19T09:29:01;14.20;86.00
14733;DHT22;7457;50.960;6.830;2023-11-19T09:31:27;14.30;87.00
14733;DHT22;7457;50.960;6.830;2023-11-19T09:33:53;14.50;86.70
14733;DHT22;7457;50.960;6.830;2023-11-19T09:36:18;14.60;86.10
14733;DHT22;7457;50.960;6.830;2023-11-19T09:38:44;14.70;85.00
14733;DHT22;7457;50.960;6.830;2023-11-19T09:41:10;14.90;85.10
14733;DHT22;7457;50.960;6.830;2023-11-19T09:43:42;15.20;85.10
14733;DHT22;7457;50.960;6.830;2023-11-19T09:46:13;15.50;85.20
14733;DHT22;7457;50.960;6.830;2023-11-19T09:48:40;15.50;82.90
14733;DHT22;7457;50.960;6.830;2023-11-19T09:51:10;15.30;81.70
14733;DHT22;7457;50.960;6.830;2023-11-19T09:53:36;15.10;82.00
14733;DHT22;7457;50.960;6.830;2023-11-19T09:56:06;15.00;81.60
14733;DHT22;7457;50.960;6.830;2023-11-19T09:58:34;14.80;81.20
14733;DHT22;7457;50.960;6.830;2023-11-19T10:01:00;14.70;83.80
14733;DHT22;7457;50.960;6.830;2023-11-19T10:03:32;15.00;84.60
14733;DHT22;7457;50.960;6.830;2023-11-19T10:05:58;15.50;84.50
14733;DHT22;7457;50.960;6.830;2023-11-19T10:08:24;16.00;84.40
14733;DHT22;7457;50.960;6.830;2023-11-19T10:10:50;16.20;82.20
14733;DHT22;7457;50.960;6.830;2023-11-19T10:13:17;16.30;80.80
14733;DHT22;7457;50.960;6.830;2023-11-19T10:15:43;16.50;78.60
14733;DHT22;7457;50.960;6.830;2023-11-19T10:18:09;16.70;80.60
14733;DHT22;7457;50.960;6.830;2023-11-19T10:20:36;16.80;78.30
14733;DHT22;7457;50.960;6.830;2023-11-19T10:23:02;16.70;78.90
14733;DHT22;7457;50.960;6.830;2023-11-19T10:25:29;16.60;78.60
14733;DHT22;7457;50.960;6.830;2023-11-19T10:27:56;16.40;76.60
14733;DHT22;7457;50.960;6.830;2023-11-19T10:30:29;16.30;76.00
14733;DHT22;7457;50.960;6.830;2023-11-19T10:33:13;15.90;77.00
14733;DHT22;7457;50.960;6.830;2023-11-19T10:35:55;15.90;79.00
14733;DHT22;7457;50.960;6.830;2023-11-19T10:38:25;16.20;77.90
14733;DHT22;7457;50.960;6.830;2023-11-19T10:40:52;16.30;76.50
14733;DHT22;7457;50.960;6.830;2023-11-19T10:43:18;16.20;74.70
14733;DHT22;7457;50.960;6.830;2023-11-19T10:45:44;16.00;75.10
14733;DHT22;7457;50.960;6.830;2023-11-19T10:48:10;15.90;76.40
14733;DHT22;7457;50.960;6.830;2023-11-19T10:50:37;15.80;77.70
14733;DHT22;7457;50.960;6.830;2023-11-19T10:53:04;15.70;75.60
14733;DHT22;7457;50.960;6.830;2023-11-19T10:55:32;15.60;76.10
14733;DHT22;7457;50.960;6.830;2023-11-19T10:58:07;15.30;77.90
14733;DHT22;7457;50.960;6.830;2023-11-19T11:00:46;15.20;78.50
14733;DHT22;7457;50.960;6.830;2023-11-19T11:03:17;15.20;75.90
14733;DHT22;7457;50.960;6.830;2023-11-19T11:05:46;15.00;75.60
14733;DHT22;7457;50.960;6.830;2023-11-19T11:08:13;14.80;75.60
14733;DHT22;7457;50.960;6.830;2023-11-19T11:10:53;14.50;76.10
14733;DHT22;7457;50.960;6.830;2023-11-19T11:13:19;14.20;77.00
14733;DHT22;7457;50.960;6.830;2023-11-19T11:15:45;13.90;79.10
14733;DHT22;7457;50.960;6.830;2023-11-19T11:18:13;14.00;83.10
14733;DHT22;7457;50.960;6.830;2023-11-19T11:20:39;14.40;81.30
14733;DHT22;7457;50.960;6.830;2023-11-19T11:23:37;14.60;80.50
14733;DHT22;7457;50.960;6.830;2023-11-19T11:26:23;14.60;79.60
14733;DHT22;7457;50.960;6.830;2023-11-19T11:29:04;14.60;79.00
14733;DHT22;7457;50.960;6.830;2023-11-19T11:32:06;14.40;79.00
14733;DHT22;7457;50.960;6.830;2023-11-19T11:34:58;14.30;81.70
14733;DHT22;7457;50.960;6.830;2023-11-19T11:37:33;14.80;78.80
14733;DHT22;7457;50.960;6.830;2023-11-19T11:40:02;14.90;79.80
14733;DHT22;7457;50.960;6.830;2023-11-19T11:42:38;15.00;77.20
14733;DHT22;7457;50.960;6.830;2023-11-19T11:45:14;14.90;76.60
14733;DHT22;7457;50.960;6.830;2023-11-19T11:50:15;15.00;77.40
14733;DHT22;7457;50.960;6.830;2023-11-19T11:55:35;14.80;75.80
14733;DHT22;7457;50.960;6.830;2023-11-19T11:58:05;14.70;76.20
14733;DHT22;7457;50.960;6.830;2023-11-19T12:00:41;14.50;76.80
14733;DHT22;7457;50.960;6.830;2023-11-19T12:03:07;14.50;78.40
14733;DHT22;7457;50.960;6.830;2023-11-19T12:05:39;14.50;78.90
14733;DHT22;7457;50.960;6.830;2023-11-19T12:08:06;14.60;79.70
14733;DHT22;7457;50.960;6.830;2023-11-19T12:13:08;14.90;78.50
14733;DHT22;7457;50.960;6.830;2023-11-19T12:18:20;15.30;76.70
14733;DHT22;7457;50.960;6.830;2023-11-19T12:20:46;15.20;76.90
14733;DHT22;7457;50.960;6.830;2023-11-19T12:23:12;15.00;76.80
14733;DHT22;7457;50.960;6.830;2023-11-19T12:25:38;14.80;77.20
14733;DHT22;7457;50.960;6.830;2023-11-19T12:28:03;14.60;77.10
14733;DHT22;7457;50.960;6.830;2023-11-19T12:30:29;14.40;77.90
14733;DHT22;7457;50.960;6.830;2023-11-19T12:32:55;14.30;78.40
14733;DHT22;7457;50.960;6.830;2023-11-19T12:35:21;14.20;78.80
14733;DHT22;7457;50.960;6.830;2023-11-19T12:37:48;14.10;79.30
14733;DHT22;7457;50.960;6.830;2023-11-19T12:40:22;14.00;79.60
14733;DHT22;7457;50.960;6.830;2023-11-19T12:42:55;14.00;80.20
14733;DHT22;7457;50.960;6.830;2023-11-19T12:45:21;13.90;80.00
14733;DHT22;7457;50.960;6.830;2023-11-19T12:47:49;13.80;80.10
14733;DHT22;7457;50.960;6.830;2023-11-19T12:50:16;13.70;80.30
14733;DHT22;7457;50.960;6.830;2023-11-19T12:53:03;13.70;80.40
14733;DHT22;7457;50.960;6.830;2023-11-19T12:55:30;13.50;80.90
14733;DHT22;7457;50.960;6.830;2023-11-19T12:57:56;13.40;81.30
14733;DHT22;7457;50.960;6.830;2023-11-19T13:00:24;13.40;81.90
14733;DHT22;7457;50.960;6.830;2023-11-19T13:02:55;13.40;82.40
14733;DHT22;7457;50.960;6.830;2023-11-19T13:07:57;13.40;82.40
14733;DHT22;7457;50.960;6.830;2023-11-19T13:10:24;13.40;81.90
14733;DHT22;7457;50.960;6.830;2023-11-19T13:13:02;13.40;82.60
14733;DHT22;7457;50.960;6.830;2023-11-19T13:15:29;13.40;82.80
14733;DHT22;7457;50.960;6.830;2023-11-19T13:17:55;13.40;83.10
14733;DHT22;7457;50.960;6.830;2023-11-19T13:20:20;13.50;82.80
14733;DHT22;7457;50.960;6.830;2023-11-19T13:25:24;13.50;81.30
14733;DHT22;7457;50.960;6.830;2023-11-19T13:27:50;13.40;81.50
14733;DHT22;7457;50.960;6.830;2023-11-19T13:30:16;13.40;81.90
14733;DHT22;7457;50.960;6.830;2023-11-19T13:32:42;13.30;82.20
14733;DHT22;7457;50.960;6.830;2023-11-19T13:35:09;13.30;82.00
14733;DHT22;7457;50.960;6.830;2023-11-19T13:37:34;13.40;82.00
14733;DHT22;7457;50.960;6.830;2023-11-19T13:40:00;13.30;82.00
14733;DHT22;7457;50.960;6.830;2023-11-19T13:42:26;13.30;82.00
14733;DHT22;7457;50.960;6.830;2023-11-19T13:44:52;13.30;82.20
14733;DHT22;7457;50.960;6.830;2023-11-19T13:47:18;13.20;82.10
14733;DHT22;7457;50.960;6.830;2023-11-19T13:49:44;13.20;82.90
14733;DHT22;7457;50.960;6.830;2023-11-19T13:52:10;13.20;82.80
14733;DHT22;7457;50.960;6.830;2023-11-19T13:54:37;13.20;82.50
14733;DHT22;7457;50.960;6.830;2023-11-19T13:57:03;13.20;82.50
14733;DHT22;7457;50.960;6.830;2023-11-19T13:59:32;13.20;82.00
14733;DHT22;7457;50.960;6.830;2023-11-19T14:01:58;13.30;82.00
14733;DHT22;7457;50.960;6.830;2023-11-19T14:04:24;13.30;81.90
14733;DHT22;7457;50.960;6.830;2023-11-19T14:06:50;13.30;81.80
14733;DHT22;7457;50.960;6.830;2023-11-19T14:09:16;13.30;81.70
14733;DHT22;7457;50.960;6.830;2023-11-19T14:11:43;13.30;81.50
14733;DHT22;7457;50.960;6.830;2023-11-19T14:14:09;13.30;81.60
14733;DHT22;7457;50.960;6.830;2023-11-19T14:16:34;13.20;81.90
14733;DHT22;7457;50.960;6.830;2023-11-19T14:19:01;13.20;81.70
14733;DHT22;7457;50.960;6.830;2023-11-19T14:21:26;13.20;81.50
14733;DHT22;7457;50.960;6.830;2023-11-19T14:23:52;13.20;81.40
14733;DHT22;7457;50.960;6.830;2023-11-19T14:26:18;13.10;81.30
14733;DHT22;7457;50.960;6.830;2023-11-19T14:28:44;13.10;80.90
14733;DHT22;7457;50.960;6.830;2023-11-19T14:31:09;13.10;81.10
14733;DHT22;7457;50.960;6.830;2023-11-19T14:33:35;13.00;80.60
14733;DHT22;7457;50.960;6.830;2023-11-19T14:36:03;13.00;81.00
14733;DHT22;7457;50.960;6.830;2023-11-19T14:38:29;13.00;80.90
14733;DHT22;7457;50.960;6.830;2023-11-19T14:40:55;13.00;81.20
14733;DHT22;7457;50.960;6.830;2023-11-19T14:43:21;13.00;81.30
14733;DHT22;7457;50.960;6.830;2023-11-19T14:45:46;13.00;81.90
14733;DHT22;7457;50.960;6.830;2023-11-19T14:48:12;13.10;82.00
14733;DHT22;7457;50.960;6.830;2023-11-19T14:50:37;13.10;81.30
14733;DHT22;7457;50.960;6.830;2023-11-19T14:53:03;13.10;80.70
14733;DHT22;7457;50.960;6.830;2023-11-19T14:55:29;13.00;80.50
14733;DHT22;7457;50.960;6.830;2023-11-19T14:57:54;13.00;80.40
14733;DHT22;7457;50.960;6.830;2023-11-19T15:00:22;12.90;80.70
14733;DHT22;7457;50.960;6.830;2023-11-19T15:02:47;12.70;81.20
14733;DHT22;7457;50.960;6.830;2023-11-19T15:05:13;12.60;81.50
14733;DHT22;7457;50.960;6.830;2023-11-19T15:07:39;12.60;81.90
14733;DHT22;7457;50.960;6.830;2023-11-19T15:10:06;12.60;81.90
14733;DHT22;7457;50.960;6.830;2023-11-19T15:12:38;12.60;81.60
14733;DHT22;7457;50.960;6.830;2023-11-19T15:15:08;12.50;81.50
14733;DHT22;7457;50.960;6.830;2023-11-19T15:17:40;12.50;81.40
14733;DHT22;7457;50.960;6.830;2023-11-19T15:20:07;12.50;81.80
14733;DHT22;7457;50.960;6.830;2023-11-19T15:22:32;12.40;82.00
14733;DHT22;7457;50.960;6.830;2023-11-19T15:24:58;12.40;82.20
14733;DHT22;7457;50.960;6.830;2023-11-19T15:27:24;12.30;82.50
14733;DHT22;7457;50.960;6.830;2023-11-19T15:29:49;12.30;83.30
14733;DHT22;7457;50.960;6.830;2023-11-19T15:32:15;12.20;83.90
14733;DHT22;7457;50.960;6.830;2023-11-19T15:34:40;12.20;84.70
14733;DHT22;7457;50.960;6.830;2023-11-19T15:37:07;12.00;85.30
14733;DHT22;7457;50.960;6.830;2023-11-19T15:39:33;11.90;86.00
14733;DHT22;7457;50.960;6.830;2023-11-19T15:42:01;11.70;86.50
14733;DHT22;7457;50.960;6.830;2023-11-19T15:44:27;11.70;87.00
14733;DHT22;7457;50.960;6.830;2023-11-19T15:46:54;11.60;87.00
14733;DHT22;7457;50.960;6.830;2023-11-19T15:49:20;11.50;87.10
14733;DHT22;7457;50.960;6.830;2023-11-19T15:51:46;11.40;87.10
14733;DHT22;7457;50.960;6.830;2023-11-19T15:54:11;11.40;87.40
14733;DHT22;7457;50.960;6.830;2023-11-19T15:56:37;11.30;87.70